KAPA/APA METAR and TAF weather

Enter ICAO airport designator
Station Type Date Time Source
KAPA METAR 2020/01/28 11:53 UTC NOAA

KAPA 281153Z 00000KT 10SM FEW220 M05/M10 A3009 RMK AO2 SLP224 70003 T10501100 10017 21072 51004


Station Type Date Time Source
KAPA Decoded METAR 2020/01/28 11:53 UTC NOAA

DENVER CENTENNIAL AIRPORT, CO, United States (KAPA) 39-34N 104-51W 1775M
Jan 28, 2020 - 06:53 AM EST / 2020.01.28 1153 UTC
Wind: Calm:0
Visibility: 10 mile(s):0
Sky conditions: mostly clear
Temperature: 23.0 F (-5.0 C)
Dew Point: 14.0 F (-10.0 C)
Relative Humidity: 67%
Pressure (altimeter): 30.09 in. Hg (1018 hPa)
Pressure tendency: 0.01 inches (0.4 hPa) higher than three hours ago
ob: KAPA 281153Z 00000KT 10SM FEW220 M05/M10 A3009 RMK AO2 SLP224 70003 T10501100 10017 21072 51004
cycle: 12

Station Type Date Time Source
KAPA TAF 2020/01/28 12:36 UTC NOAA

TAF KAPA 281133Z 2812/2912 14007KT P6SM FEW120 FEW220
FM281400 24004KT P6SM SKC
FM281900 34010KT P6SM SKC
FM290200 12008KT P6SM FEW200
FM290600 19008KT P6SM FEW120 BKN200

Example: see airport list